« 定点 富山空港 2019/7/20 sat | トップページ | 第7師団創隊64周年・東千歳駐屯地創立65周年記念行事【観閲行進編】 2019/5/26 sun »

2019/07/24

定点 富山空港 2019/7/24 wed

朝から青空が広がっていますが、水分も多目。いろいろなところに雲がもくもく。

RJNT 232300Z 13003KT 080V240 9999 FEW030 27/21 Q1007

20190724_rjnt_00ja80an

ANA313 RJTT-RJNT JA80AN B737-881

RJNT 240000Z VRB02KT 9999 FEW030 28/22 Q1007

20190724_rjnt_01ja80an

暑いので離陸距離が伸びているようで・・ 梅雨明け

20190724_rjnt_02ja80an

ANA316 RJNT-RJTT JA80AN B737-881

RJNT 240100Z 32003KT 250V060 9999 FEW030 30/23 Q1007

20190724_rjnt_03ja6502

JA6502 AS350B3 AKF

20190724_rjnt_04ja6768

防災さんも夏空が似合う

20190724_rjnt_05ja6768

JA6768 B412EP 富山県消防防災

20190724_rjnt_06ja113a

20190724_rjnt_07ja113a

ANA315 RJTT-RJNT JA113A A321-211

20190724_rjnt_08ja10ym

空港至近でドクヘリ事案発生

20190724_rjnt_09ja10ym

河での水難の模様

20190724_rjnt_10b6766

CSN613 ZYTL-RJNT B-6766 A320-232

20190724_rjnt_11b6766

RJNT 240200Z 28004KT 220V350 9999 SCT030 30/23 Q1006

20190724_rjnt_12ja139t

JA139T AW139 富山県警察

20190724_rjnt_13fvc

紆余曲折あって、ドクヘリランデブーは南運動公園

20190724_rjnt_14ja10ym

ドクター達は日陰で救急車待ち

20190724_rjnt_15ja10ym

JA10YM A109SP SAK 富山県ドクターヘリ

20190724_rjnt_16fvc

結局、ドクター同乗で市民病院搬送の模様

20190724_rjnt_17ja10ym

ドクヘリさんも出発

20190724_rjnt_18ja10ym

20190724_rjnt_19ja10ym

市民病院でドクターピックアップしてから帰投の模様

20190724_rjnt_20ja113a

20190724_rjnt_21ja113a

ANA1181 RJNT-RJCC JA113A A321-211

20190724_rjnt_22ja113a

ジャストクロスで煽られています。

20190724_rjnt_23ja139t

JA139T 警察さんは山岳事案に出動

RJNT 240300Z 28009KT 9999 VCSH FEW020 BKN030 30/23 Q1006

20190724_rjnt_24b6766

20190724_rjnt_25b6766

CSN614 RJNT-ZYTL B-6766 A320-232

20190724_rjnt_26b6766

20190724_rjnt_27ja139t

20190724_rjnt_28ja139t

JA139T 病院搬送して帰投。夏は忙しくなる。

 

|

« 定点 富山空港 2019/7/20 sat | トップページ | 第7師団創隊64周年・東千歳駐屯地創立65周年記念行事【観閲行進編】 2019/5/26 sun »

富山空港」カテゴリの記事

場外」カテゴリの記事

警務消防」カテゴリの記事

コメント

コメントを書く



(ウェブ上には掲載しません)


コメントは記事投稿者が公開するまで表示されません。



« 定点 富山空港 2019/7/20 sat | トップページ | 第7師団創隊64周年・東千歳駐屯地創立65周年記念行事【観閲行進編】 2019/5/26 sun »